Lethbridge County Airport
CYQL : now visible

Airfield :











YOU CAN JOIN US ON...

 
LOGIN :

Register | Disclaimer

   EN    FR    IT 

 









Legend :    VFR   Marginal VFR   IFR   Intensive IFR   Very Intensive IFR
Visi :
Ceiling :
>= 8 km
>= 3000ft
5 to 8 km
1000 to 3000 ft
1500m to 5 km
500 to 1000 ft
800 to 1500m
200 to 500 ft
< 800m
< 200 ft
Symbols :   Thunderstorms  Fog  Heavy snow  Heavy precipitations  Wind > 20 kt






- Airport Elevation : 3047 ft
- IATA code : YQL


CYQL - Lethbridge County

CURRENT METAR :
  • 262300Z 17009KT 60SM BKN100 05/M01 A2983 RMK AC8 SLP137

EXPIRED METARs :
  • 262200Z 18011KT 60SM BKN095 BKN260 06/M01 A2984 RMK AC6CI1 SLP140
  • 262100Z 17007KT 60SM SCT110 BKN260 04/M01 A2986 RMK AC4CI2 SLP148

TAF TAF CYQL
Valid from the 26 at 18:00 until the 27 at 06:00 UTC


261738Z 2618/2706 VRB03KT P6SM FEW140 BKN250
FM262200 20008KT P6SM SCT060 BKN120
TEMPO 2622/2704 BKN060 OVC120
FM270400 24014KT P6SM SCT120 BKN200 RMK NXT FCST BY 270000Z



MET'MAP, your aeronautical weather chart ! - Copyright ORBIFLY December 2007 - Disclaimer

ORBIFLY MET'MAP TEAM :

Programming & Development : Alexandra Zaïnal
Concept & original design : Baudouin d'Aumeries
Assistance for programming : Marc-Olivier Méhu
Technical & hardware support : Manuel Goepfert

Contact : metmap@orbifly.com




SOURCES & CREDITS :

   NOAA       Earth
Advisory